Archival Weather

Norman Y Mineta San Jose Intl

San Jose, California (KSJC)

Report from: Wednesday, February 21, 2024 9:53 PM PST
Current time: Monday, June 17, 2024 1:49 AM PDT

Current weather – Weather history – Daily summaries
Weather forecast

Temperature13.3°C (55.9°F)
Dew point8.3°C (46.9°F)
Winds 4 kts (2.1 m/s, 4.6 mph) North-Northwest (340°)
Visibility10 mi. (16.1 km)
Clouds Ceiling: Broken clouds 3,500 ft. (1,067 m)
Broken clouds 5,500 ft. (1,676 m)
Altimeter30.26 in.Hg (1025 mB)
Relative humidity72 %
Density altitude-431 ft. (-131 m)
Sea-level pressure102.5 kPa (1025 mB, 30.26 in.Hg)
Max temp last 6 hours15.6°C (60.1°F)
Min temp last 6 hours11.7°C (53.1°F)
Remarks Automated weather observing station with precipitation discriminator
Pressure rising more slowly
Flight conditions Visual Meteorological Conditions
Raw dataKSJC 220553Z 34004KT 10SM BKN035 BKN055 13/08 A3026 RMK AO2 SLP247 T01330083 10156 20117 51022
An error has occurred. This application may no longer respond until reloaded. Reload 🗙